Time;durP1;ratioP1;P1;durP2;ratioP2;P2;SDS_P1;SDS_P2;PMS_P1;PMS_P2;Temp;Humidity;BMP_temperature;BMP_pressure;BME280_temperature;BME280_humidity;BME280_pressure;Samples;Min_cycle;Max_cycle;Signal;HPM_P1;HPM_P2
2023/04/20 00:01:38;;;;;;;5.85;2.05;;;10.30;77.00;;;;;;5056552;28;20028;-74
2023/04/20 00:04:04;;;;;;;6.07;2.65;;;10.30;75.50;;;;;;5069332;28;20056;-76
2023/04/20 00:06:31;;;;;;;4.20;1.73;;;10.30;74.20;;;;;;5068734;28;20032;-75
2023/04/20 00:09:00;;;;;;;6.28;2.08;;;10.30;74.10;;;;;;5070162;28;20027;-76
2023/04/20 00:11:29;;;;;;;5.43;2.83;;;10.30;81.70;;;;;;5057703;28;20039;-77
2023/04/20 00:13:56;;;;;;;6.53;2.50;;;10.20;74.40;;;;;;5068083;28;20795;-75
2023/04/20 00:16:22;;;;;;;4.80;1.92;;;10.20;71.40;;;;;;5070388;28;20031;-75
2023/04/20 00:18:48;;;;;;;5.70;2.17;;;10.20;75.40;;;;;;5065750;28;20464;-75
2023/04/20 00:21:14;;;;;;;5.13;1.50;;;10.20;76.50;;;;;;5069874;28;20389;-74
2023/04/20 00:23:40;;;;;;;11.82;2.45;;;10.20;82.10;;;;;;5068986;28;20028;-76
2023/04/20 00:26:07;;;;;;;6.30;1.58;;;10.10;76.20;;;;;;5068545;28;20032;-74
2023/04/20 00:28:32;;;;;;;4.60;2.08;;;10.10;79.40;;;;;;5068971;28;20039;-75
2023/04/20 00:30:58;;;;;;;5.22;1.92;;;10.00;73.60;;;;;;5068981;28;20127;-74
2023/04/20 00:33:24;;;;;;;5.05;2.10;;;10.00;75.20;;;;;;5061762;28;20024;-74
2023/04/20 00:35:49;;;;;;;4.03;2.10;;;10.00;71.80;;;;;;5068809;28;20031;-76
2023/04/20 00:38:15;;;;;;;6.00;1.83;;;9.90;74.90;;;;;;5069132;28;20084;-75
2023/04/20 00:40:47;;;;;;;5.28;1.50;;;9.90;74.50;;;;;;5062596;28;20020;-74
2023/04/20 00:43:14;;;;;;;5.85;2.05;;;9.90;78.40;;;;;;5068742;28;20032;-74
2023/04/20 00:45:40;;;;;;;5.57;2.00;;;9.80;72.70;;;;;;5070020;28;20028;-74
2023/04/20 00:48:06;;;;;;;3.83;1.90;;;9.80;71.90;;;;;;5068242;28;20021;-75
2023/04/20 00:50:37;;;;;;;6.00;2.13;;;9.80;70.00;;;;;;5069425;28;20047;-76
2023/04/20 00:53:04;;;;;;;4.50;2.20;;;9.80;78.80;;;;;;5069558;28;20119;-75
2023/04/20 00:55:30;;;;;;;4.75;2.25;;;9.80;76.10;;;;;;5068768;28;20434;-75
2023/04/20 00:57:56;;;;;;;4.15;2.63;;;9.70;74.40;;;;;;5060759;28;20422;-75
2023/04/20 01:00:21;;;;;;;6.70;1.95;;;9.70;78.90;;;;;;5056365;28;20032;-75
2023/04/20 01:02:47;;;;;;;5.32;1.90;;;9.70;78.30;;;;;;5069855;28;20049;-75
2023/04/20 01:05:13;;;;;;;7.90;2.35;;;9.70;75.20;;;;;;5070262;28;20044;-74
2023/04/20 01:07:40;;;;;;;4.82;2.30;;;9.60;72.50;;;;;;5073871;28;20032;-74
2023/04/20 01:10:07;;;;;;;3.30;1.85;;;9.60;74.00;;;;;;5068375;28;20059;-75
2023/04/20 01:12:33;;;;;;;6.43;2.17;;;9.60;72.20;;;;;;5066413;28;20056;-74
2023/04/20 01:14:58;;;;;;;4.75;1.95;;;9.60;77.30;;;;;;5067339;28;20521;-75
2023/04/20 01:17:24;;;;;;;4.82;2.10;;;9.60;78.00;;;;;;5065554;28;20475;-75
2023/04/20 01:19:50;;;;;;;4.20;2.25;;;9.60;75.40;;;;;;5064382;28;20015;-75
2023/04/20 01:22:20;;;;;;;5.32;2.38;;;9.60;72.30;;;;;;5065253;28;20180;-74
2023/04/20 01:24:46;;;;;;;3.25;1.83;;;9.60;76.80;;;;;;5065744;28;20032;-74
2023/04/20 01:27:15;;;;;;;4.80;1.90;;;9.70;78.30;;;;;;5063374;28;20103;-74
2023/04/20 01:29:42;;;;;;;5.03;2.30;;;9.60;77.40;;;;;;5063610;28;20028;-75
2023/04/20 01:32:08;;;;;;;4.30;1.95;;;9.70;81.20;;;;;;5069480;28;20498;-75
2023/04/20 01:34:34;;;;;;;13.02;2.58;;;9.70;78.50;;;;;;5068076;28;20028;-75
2023/04/20 01:37:00;;;;;;;3.92;2.35;;;9.70;81.40;;;;;;5069099;28;20083;-75
2023/04/20 01:39:26;;;;;;;6.75;2.22;;;9.80;83.40;;;;;;5067452;28;20025;-75
2023/04/20 01:41:52;;;;;;;6.90;1.63;;;9.80;83.20;;;;;;5062221;28;20365;-75
2023/04/20 01:44:17;;;;;;;7.03;2.15;;;9.80;85.80;;;;;;5049910;28;20021;-75
2023/04/20 01:46:43;;;;;;;6.35;2.60;;;9.90;82.10;;;;;;5062792;28;20486;-75
2023/04/20 01:49:09;;;;;;;7.32;2.03;;;10.00;81.40;;;;;;5067281;28;20032;-75
2023/04/20 01:51:35;;;;;;;3.20;1.63;;;9.90;83.10;;;;;;5067343;28;20061;-74
2023/04/20 01:54:01;;;;;;;4.68;2.10;;;10.00;84.20;;;;;;5069037;28;20021;-74
2023/04/20 01:56:27;;;;;;;5.55;1.70;;;10.00;82.40;;;;;;5064887;28;20021;-75
2023/04/20 01:58:53;;;;;;;9.02;2.90;;;9.90;84.70;;;;;;5068745;28;20051;-75
2023/04/20 02:01:19;;;;;;;4.85;2.00;;;9.90;84.60;;;;;;5068613;28;20495;-75
2023/04/20 02:03:44;;;;;;;3.42;1.95;;;9.90;80.90;;;;;;5066718;28;20059;-75
2023/04/20 02:06:10;;;;;;;6.22;2.42;;;9.90;83.70;;;;;;5068116;28;20025;-75
2023/04/20 02:08:36;;;;;;;2.63;1.58;;;9.90;82.80;;;;;;5068865;28;20024;-75
2023/04/20 02:11:02;;;;;;;4.75;2.08;;;9.90;86.00;;;;;;5066592;28;20028;-75
2023/04/20 02:13:27;;;;;;;4.32;1.92;;;9.90;88.60;;;;;;5067850;28;20162;-75
2023/04/20 02:15:53;;;;;;;5.60;2.83;;;9.80;86.70;;;;;;5067158;28;20013;-76
2023/04/20 02:18:20;;;;;;;4.55;2.22;;;9.80;85.80;;;;;;5064798;28;20066;-76
2023/04/20 02:20:45;;;;;;;7.47;2.80;;;9.80;83.40;;;;;;5060573;28;20029;-75
2023/04/20 02:23:11;;;;;;;9.77;3.80;;;9.80;84.60;;;;;;5068217;28;20425;-75
2023/04/20 02:25:37;;;;;;;7.85;2.92;;;9.80;81.90;;;;;;5067418;28;20017;-74
2023/04/20 02:28:03;;;;;;;5.20;2.70;;;9.80;81.10;;;;;;5065114;28;20098;-75
2023/04/20 02:30:29;;;;;;;5.70;2.33;;;9.80;81.20;;;;;;5048499;28;20760;-75
2023/04/20 02:32:55;;;;;;;3.72;1.65;;;9.80;80.40;;;;;;5065134;28;20556;-74
2023/04/20 02:35:21;;;;;;;7.38;3.03;;;9.90;87.60;;;;;;5068402;28;20111;-74
2023/04/20 02:37:47;;;;;;;6.60;3.33;;;9.90;86.70;;;;;;5068240;28;20089;-75
2023/04/20 02:40:13;;;;;;;7.70;2.70;;;9.90;87.20;;;;;;5068006;28;20021;-75
2023/04/20 02:42:39;;;;;;;5.43;2.70;;;9.90;85.10;;;;;;5067919;28;20478;-75
2023/04/20 02:45:05;;;;;;;7.78;3.35;;;9.90;80.70;;;;;;5066640;28;20104;-75
2023/04/20 02:47:31;;;;;;;7.05;3.60;;;9.90;80.20;;;;;;5063603;28;20119;-75
2023/04/20 02:49:56;;;;;;;2.95;1.77;;;9.90;82.40;;;;;;5061663;28;20107;-75
2023/04/20 02:52:22;;;;;;;6.38;2.63;;;9.90;85.00;;;;;;5065466;28;20151;-74
2023/04/20 02:54:48;;;;;;;6.55;3.13;;;9.90;86.70;;;;;;5054704;28;20029;-74
2023/04/20 02:57:14;;;;;;;5.95;2.22;;;9.90;85.70;;;;;;5052094;28;20092;-73
2023/04/20 02:59:39;;;;;;;9.13;3.42;;;10.00;87.40;;;;;;5065196;28;20024;-74
2023/04/20 03:02:05;;;;;;;5.30;3.50;;;10.00;80.50;;;;;;5066810;28;20044;-75
2023/04/20 03:04:31;;;;;;;5.38;2.53;;;10.00;81.20;;;;;;5064782;28;20040;-76
2023/04/20 03:06:57;;;;;;;8.10;2.92;;;10.00;80.90;;;;;;5052421;28;20071;-76
2023/04/20 03:09:24;;;;;;;4.70;1.88;;;10.00;86.40;;;;;;5060460;28;20103;-75
2023/04/20 03:11:50;;;;;;;5.53;2.88;;;10.00;87.20;;;;;;5071430;28;20024;-74
2023/04/20 03:14:16;;;;;;;4.38;1.63;;;10.10;88.50;;;;;;5071882;28;20040;-75
2023/04/20 03:16:41;;;;;;;8.55;3.22;;;10.00;88.90;;;;;;5070545;28;20044;-75
2023/04/20 03:19:07;;;;;;;5.68;2.70;;;10.00;84.30;;;;;;5070139;28;20116;-75
2023/04/20 03:21:33;;;;;;;11.65;3.47;;;10.10;87.80;;;;;;5069917;28;20120;-75
2023/04/20 03:24:02;;;;;;;5.40;2.65;;;10.00;86.80;;;;;;5070750;28;20611;-74
2023/04/20 03:26:28;;;;;;;6.22;2.83;;;10.10;87.30;;;;;;5069248;28;20491;-74
2023/04/20 03:28:53;;;;;;;7.80;3.38;;;10.10;88.80;;;;;;5070525;28;20036;-75
2023/04/20 03:31:19;;;;;;;7.20;2.88;;;10.10;87.80;;;;;;5066626;28;20053;-75
2023/04/20 03:33:44;;;;;;;6.60;2.53;;;10.10;84.00;;;;;;5063160;28;20033;-74
2023/04/20 03:36:10;;;;;;;5.43;2.15;;;10.20;88.00;;;;;;5070378;28;20386;-75
2023/04/20 03:38:36;;;;;;;4.35;1.33;;;10.20;89.00;;;;;;5069993;28;20025;-74
2023/04/20 03:41:01;;;;;;;5.15;2.45;;;10.20;91.00;;;;;;5063382;28;20031;-74
2023/04/20 03:43:27;;;;;;;6.85;1.77;;;10.30;89.70;;;;;;5068604;28;20032;-74
2023/04/20 03:45:52;;;;;;;6.53;3.10;;;10.30;90.30;;;;;;5069479;28;20013;-75
2023/04/20 03:48:18;;;;;;;5.97;2.67;;;10.20;86.40;;;;;;5059304;28;20021;-76
2023/04/20 03:50:44;;;;;;;6.80;2.28;;;10.20;85.60;;;;;;5065195;28;20463;-76
2023/04/20 03:53:09;;;;;;;4.75;1.95;;;10.20;87.80;;;;;;5049810;28;20090;-75
2023/04/20 03:55:35;;;;;;;6.72;2.22;;;10.20;90.50;;;;;;5064449;28;20075;-75
2023/04/20 03:58:01;;;;;;;5.70;2.22;;;10.20;89.90;;;;;;5070057;28;20032;-74
2023/04/20 04:00:26;;;;;;;4.38;1.73;;;10.20;90.40;;;;;;5069748;28;20111;-76
2023/04/20 04:02:52;;;;;;;6.68;3.50;;;10.20;90.80;;;;;;5069250;28;20080;-75
2023/04/20 04:05:18;;;;;;;6.55;2.70;;;10.20;90.30;;;;;;5069215;28;20024;-75
2023/04/20 04:07:43;;;;;;;7.57;2.75;;;10.20;87.60;;;;;;5069730;28;20074;-75
2023/04/20 04:10:09;;;;;;;7.15;2.95;;;10.20;87.10;;;;;;5069280;28;20036;-74
2023/04/20 04:12:35;;;;;;;9.80;3.05;;;10.10;85.50;;;;;;5068919;28;20027;-75
2023/04/20 04:15:01;;;;;;;6.88;2.92;;;10.10;87.00;;;;;;5067270;28;20033;-74
2023/04/20 04:17:26;;;;;;;5.05;2.53;;;10.20;87.90;;;;;;5068804;28;20024;-74
2023/04/20 04:19:52;;;;;;;4.93;2.30;;;10.20;89.80;;;;;;5067241;28;20360;-75
2023/04/20 04:22:18;;;;;;;5.65;2.75;;;10.20;88.90;;;;;;5065645;28;20021;-74
2023/04/20 04:24:43;;;;;;;4.68;1.73;;;10.20;88.60;;;;;;5068718;28;20033;-74
2023/04/20 04:27:10;;;;;;;6.60;2.80;;;10.20;91.10;;;;;;5068690;28;20032;-74
2023/04/20 04:29:37;;;;;;;3.38;1.50;;;10.20;88.10;;;;;;5067913;28;20028;-74
2023/04/20 04:32:04;;;;;;;6.85;2.47;;;10.30;90.90;;;;;;5060548;28;20452;-76
2023/04/20 04:34:30;;;;;;;6.75;2.63;;;10.30;89.40;;;;;;5067409;28;20048;-75
2023/04/20 04:36:56;;;;;;;5.18;1.98;;;10.20;88.80;;;;;;5068216;28;20407;-75
2023/04/20 04:39:22;;;;;;;4.60;2.17;;;10.20;90.00;;;;;;5068752;28;20086;-76
2023/04/20 04:41:48;;;;;;;5.93;3.47;;;10.20;90.00;;;;;;5068179;28;20028;-73
2023/04/20 04:44:14;;;;;;;6.97;3.00;;;10.20;87.20;;;;;;5051295;28;20039;-75
2023/04/20 04:46:40;;;;;;;6.80;2.88;;;10.30;88.10;;;;;;5059968;28;20154;-74
2023/04/20 04:49:06;;;;;;;4.10;2.25;;;10.30;86.70;;;;;;5067198;28;20028;-74
2023/04/20 04:51:32;;;;;;;5.20;2.15;;;10.20;87.50;;;;;;5065501;28;20743;-75
2023/04/20 04:53:58;;;;;;;7.00;1.90;;;10.30;90.20;;;;;;5068215;28;20083;-74
2023/04/20 04:56:24;;;;;;;4.88;1.70;;;10.30;90.30;;;;;;5067956;28;20028;-75
2023/04/20 04:58:50;;;;;;;7.55;3.63;;;10.30;91.30;;;;;;5067980;28;20020;-73
2023/04/20 05:01:15;;;;;;;7.05;3.05;;;10.40;89.50;;;;;;5066762;28;20489;-74
2023/04/20 05:03:41;;;;;;;4.82;1.95;;;10.40;90.00;;;;;;5059096;28;20052;-75
2023/04/20 05:06:07;;;;;;;7.15;2.30;;;10.40;90.10;;;;;;5068210;28;20108;-75
2023/04/20 05:08:33;;;;;;;8.13;2.47;;;10.30;88.90;;;;;;5064853;28;20025;-74
2023/04/20 05:10:59;;;;;;;4.88;2.40;;;10.40;90.50;;;;;;5064805;28;20028;-75
2023/04/20 05:13:24;;;;;;;6.40;2.53;;;10.30;88.40;;;;;;5066828;28;20045;-75
2023/04/20 05:15:50;;;;;;;5.97;2.45;;;10.40;89.80;;;;;;5067020;28;20491;-75
2023/04/20 05:18:16;;;;;;;7.20;2.75;;;10.40;87.50;;;;;;5067768;28;20028;-74
2023/04/20 05:20:41;;;;;;;5.05;2.80;;;10.40;86.10;;;;;;5068396;28;20052;-75
2023/04/20 05:23:10;;;;;;;4.60;2.38;;;10.50;85.00;;;;;;5066212;28;20028;-75
2023/04/20 05:25:37;;;;;;;4.72;2.33;;;10.50;88.10;;;;;;5068594;28;20514;-74
2023/04/20 05:28:02;;;;;;;6.95;3.40;;;10.50;89.10;;;;;;5068116;28;20100;-74
2023/04/20 05:30:28;;;;;;;5.35;2.78;;;10.50;85.60;;;;;;5068158;28;20107;-75
2023/04/20 05:32:53;;;;;;;4.85;1.85;;;10.60;88.10;;;;;;5065910;28;20021;-76
2023/04/20 05:35:20;;;;;;;6.35;2.67;;;10.60;91.10;;;;;;5057431;28;20075;-75
2023/04/20 05:37:46;;;;;;;9.98;2.88;;;10.60;88.00;;;;;;5061461;28;20510;-75
2023/04/20 05:40:12;;;;;;;9.38;3.17;;;10.70;90.40;;;;;;5065140;28;20025;-76
2023/04/20 05:42:37;;;;;;;7.25;3.80;;;10.70;88.80;;;;;;5067486;28;20483;-75
2023/04/20 05:45:04;;;;;;;6.72;3.97;;;10.60;83.80;;;;;;5064894;28;20122;-75
2023/04/20 05:47:30;;;;;;;8.38;3.55;;;10.70;82.40;;;;;;5055599;28;20028;-75
2023/04/20 05:49:56;;;;;;;7.20;1.88;;;10.80;89.90;;;;;;5056795;28;20023;-75
2023/04/20 05:52:22;;;;;;;7.30;2.78;;;10.80;90.40;;;;;;5053214;28;20028;-74
2023/04/20 05:54:48;;;;;;;5.85;2.67;;;10.80;86.50;;;;;;5068006;28;20067;-75
2023/04/20 05:57:14;;;;;;;10.30;3.20;;;10.80;87.20;;;;;;5066938;28;20060;-74
2023/04/20 05:59:40;;;;;;;6.68;3.47;;;10.80;87.20;;;;;;5067765;28;20040;-75
2023/04/20 06:02:06;;;;;;;7.75;3.03;;;10.80;85.20;;;;;;5060992;28;20145;-75
2023/04/20 06:04:31;;;;;;;8.02;3.83;;;10.80;85.90;;;;;;5063589;28;20048;-76
2023/04/20 06:06:58;;;;;;;8.27;2.97;;;10.80;87.30;;;;;;5063338;28;20086;-76
2023/04/20 06:09:24;;;;;;;7.35;3.40;;;10.80;86.30;;;;;;5074731;28;20024;-75
2023/04/20 06:11:50;;;;;;;6.75;3.22;;;10.90;87.70;;;;;;5067509;28;20024;-75
2023/04/20 06:14:16;;;;;;;6.40;3.55;;;10.90;85.50;;;;;;5064033;28;20039;-75
2023/04/20 06:16:42;;;;;;;7.85;2.38;;;11.00;87.50;;;;;;5057070;28;20033;-75
2023/04/20 06:19:08;;;;;;;5.45;2.67;;;11.10;88.00;;;;;;5053946;28;20048;-75
2023/04/20 06:21:35;;;;;;;5.00;1.92;;;11.10;87.80;;;;;;5067233;28;20020;-76
2023/04/20 06:24:01;;;;;;;9.30;3.15;;;11.20;89.40;;;;;;5065661;28;20021;-75
2023/04/20 06:26:27;;;;;;;7.32;3.55;;;11.10;84.20;;;;;;5066977;28;20016;-75
2023/04/20 06:28:52;;;;;;;9.68;2.75;;;11.00;85.00;;;;;;5064723;28;20029;-74
2023/04/20 06:31:18;;;;;;;9.02;3.60;;;11.10;88.60;;;;;;5067401;28;20091;-75
2023/04/20 06:33:45;;;;;;;13.23;3.30;;;11.10;86.30;;;;;;5066988;28;20318;-75
2023/04/20 06:36:11;;;;;;;7.30;2.75;;;11.20;89.20;;;;;;5066019;28;20025;-74
2023/04/20 06:38:36;;;;;;;8.43;3.63;;;11.20;86.90;;;;;;5067218;28;20047;-75
2023/04/20 06:41:02;;;;;;;7.00;3.83;;;11.30;86.50;;;;;;5061276;28;20021;-74
2023/04/20 06:43:28;;;;;;;7.97;3.40;;;11.40;81.80;;;;;;5067040;28;20028;-73
2023/04/20 06:45:54;;;;;;;7.15;4.07;;;11.40;80.40;;;;;;5067527;28;20757;-74
2023/04/20 06:48:20;;;;;;;8.43;3.58;;;11.40;82.40;;;;;;5069786;28;20105;-74
2023/04/20 06:50:49;;;;;;;8.70;4.10;;;11.40;78.90;;;;;;5071104;28;20036;-74
2023/04/20 06:53:16;;;;;;;8.23;3.63;;;11.40;80.10;;;;;;5064710;28;20033;-74
2023/04/20 06:55:41;;;;;;;9.30;5.03;;;11.30;81.00;;;;;;5066511;28;20025;-77
2023/04/20 06:58:07;;;;;;;8.65;3.28;;;11.30;80.90;;;;;;5064382;28;20036;-74
2023/04/20 07:00:33;;;;;;;8.38;3.47;;;11.30;80.50;;;;;;5070681;28;20827;-75
2023/04/20 07:03:02;;;;;;;11.60;4.20;;;11.40;81.00;;;;;;5070919;28;20049;-75
2023/04/20 07:05:28;;;;;;;8.90;4.32;;;11.40;80.20;;;;;;5060982;28;20023;-75
2023/04/20 07:07:56;;;;;;;9.30;4.53;;;11.40;80.80;;;;;;5072644;28;20033;-79
2023/04/20 07:10:22;;;;;;;7.85;3.75;;;11.50;80.20;;;;;;5063540;28;20054;-80
2023/04/20 07:12:47;;;;;;;5.90;3.65;;;11.40;80.80;;;;;;5067964;28;20021;-79
2023/04/20 07:15:13;;;;;;;12.30;4.28;;;11.30;79.10;;;;;;5068590;28;20089;-79
2023/04/20 07:17:39;;;;;;;9.25;4.15;;;11.40;85.00;;;;;;5062595;28;20118;-78
2023/04/20 07:20:08;;;;;;;10.38;3.90;;;11.30;83.00;;;;;;5074495;28;20020;-79
2023/04/20 07:22:35;;;;;;;9.03;4.43;;;11.30;83.40;;;;;;5067624;28;20095;-78
2023/04/20 07:25:02;;;;;;;8.32;3.88;;;11.40;86.50;;;;;;5069021;28;20056;-77
2023/04/20 07:27:28;;;;;;;8.48;4.57;;;11.50;84.00;;;;;;5067642;28;20018;-78
2023/04/20 07:29:57;;;;;;;8.32;3.80;;;11.40;82.00;;;;;;5064593;28;20036;-79
2023/04/20 07:32:23;;;;;;;5.78;3.60;;;11.30;81.60;;;;;;5071723;28;20031;-77
2023/04/20 07:34:48;;;;;;;6.95;4.22;;;11.20;82.20;;;;;;5073111;28;20036;-78
2023/04/20 07:37:14;;;;;;;9.10;4.35;;;11.30;85.50;;;;;;5074388;28;20020;-78
2023/04/20 07:39:40;;;;;;;9.30;4.68;;;11.30;86.30;;;;;;5073883;28;20024;-78
2023/04/20 07:42:07;;;;;;;9.05;3.85;;;11.10;82.10;;;;;;5070626;28;20016;-78
2023/04/20 07:44:34;;;;;;;7.25;4.03;;;11.10;84.70;;;;;;5072575;28;20027;-80
2023/04/20 07:47:00;;;;;;;6.22;4.10;;;11.10;87.00;;;;;;5058502;28;20394;-79
2023/04/20 07:49:26;;;;;;;7.28;4.30;;;11.10;86.70;;;;;;5059840;28;20172;-79
2023/04/20 07:51:51;;;;;;;8.43;4.88;;;11.20;86.20;;;;;;5069096;28;20116;-79
2023/04/20 07:54:17;;;;;;;10.73;4.53;;;11.20;84.10;;;;;;5069566;28;20086;-79
2023/04/20 07:56:43;;;;;;;5.20;3.25;;;11.30;80.40;;;;;;5075691;28;20035;-79
2023/04/20 07:59:08;;;;;;;7.03;4.13;;;11.40;84.90;;;;;;5074112;28;20020;-78
2023/04/20 08:01:35;;;;;;;9.98;4.38;;;11.40;82.00;;;;;;5075351;28;20078;-79
2023/04/20 08:04:01;;;;;;;8.68;4.93;;;11.40;84.00;;;;;;5078609;28;20158;-79
2023/04/20 08:06:27;;;;;;;8.07;4.35;;;11.50;82.20;;;;;;5057180;28;20076;-79
2023/04/20 08:08:53;;;;;;;7.78;4.93;;;11.50;81.80;;;;;;5072999;28;20103;-79
2023/04/20 08:11:19;;;;;;;7.65;4.40;;;11.50;80.80;;;;;;5074475;28;20025;-78
2023/04/20 08:13:44;;;;;;;9.95;4.53;;;11.50;81.70;;;;;;5073995;28;20036;-80
2023/04/20 08:16:10;;;;;;;9.10;4.80;;;11.50;82.90;;;;;;5079646;28;20021;-78
2023/04/20 08:18:36;;;;;;;13.25;5.40;;;11.50;86.50;;;;;;5061964;28;20020;-78
2023/04/20 08:21:01;;;;;;;9.43;5.05;;;11.60;83.60;;;;;;5069036;28;20036;-79
2023/04/20 08:23:27;;;;;;;8.38;4.40;;;11.70;81.50;;;;;;5074966;28;20542;-77
2023/04/20 08:25:54;;;;;;;9.75;4.22;;;11.60;82.60;;;;;;5074677;28;20029;-78
2023/04/20 08:28:20;;;;;;;8.02;4.78;;;11.60;79.80;;;;;;5067224;28;20115;-79
2023/04/20 08:30:46;;;;;;;7.60;4.40;;;11.60;78.50;;;;;;5074427;28;20035;-78
2023/04/20 08:33:12;;;;;;;6.50;3.92;;;11.70;82.50;;;;;;5073395;28;20024;-78
2023/04/20 08:35:37;;;;;;;8.40;3.80;;;11.70;82.40;;;;;;5072659;28;20033;-79
2023/04/20 08:38:03;;;;;;;7.38;3.67;;;11.70;83.90;;;;;;5071027;28;20455;-80
2023/04/20 08:40:30;;;;;;;7.70;4.78;;;11.80;86.50;;;;;;5071144;28;20024;-78
2023/04/20 08:42:58;;;;;;;6.80;3.47;;;11.80;84.30;;;;;;5072237;28;20028;-79
2023/04/20 08:45:25;;;;;;;7.90;5.28;;;11.80;86.80;;;;;;5070819;28;20087;-77
2023/04/20 08:47:51;;;;;;;6.35;3.13;;;11.80;85.30;;;;;;5070691;28;20052;-77
2023/04/20 08:50:19;;;;;;;8.80;5.18;;;11.80;87.70;;;;;;5070300;28;20464;-80
2023/04/20 08:52:45;;;;;;;9.32;5.20;;;11.80;85.90;;;;;;5069826;28;20021;-78
2023/04/20 08:55:18;;;;;;;9.15;5.05;;;11.80;82.50;;;;;;5070083;28;20558;-78
2023/04/20 08:57:44;;;;;;;9.75;5.00;;;11.70;82.20;;;;;;5070052;28;20074;-78
2023/04/20 09:00:10;;;;;;;8.48;4.93;;;11.70;81.30;;;;;;5069389;28;20819;-78
2023/04/20 09:02:47;;;;;;;7.93;4.75;;;11.70;80.60;;;;;;5068162;28;20032;-78
2023/04/20 09:05:12;;;;;;;9.38;4.78;;;11.70;81.40;;;;;;5071723;28;20025;-78
2023/04/20 09:07:38;;;;;;;8.05;5.03;;;11.60;80.20;;;;;;5070152;28;20094;-78
2023/04/20 09:10:04;;;;;;;6.72;3.70;;;11.70;83.30;;;;;;5069071;28;20055;-79
2023/04/20 09:12:40;;;;;;;11.15;5.05;;;11.80;85.10;;;;;;5070584;28;20098;-79
2023/04/20 09:15:06;;;;;;;8.48;5.50;;;11.70;82.90;;;;;;5075048;28;20484;-79
2023/04/20 09:17:33;;;;;;;8.15;4.80;;;11.70;81.80;;;;;;5070496;28;20031;-78
2023/04/20 09:19:59;;;;;;;5.43;3.75;;;11.60;80.90;;;;;;5063171;28;20039;-79
2023/04/20 09:22:33;;;;;;;6.88;3.53;;;11.60;85.70;;;;;;5069005;28;20033;-80
2023/04/20 09:25:11;;;;;;;8.80;4.40;;;11.70;87.40;;;;;;5071349;28;20020;-80
2023/04/20 09:27:36;;;;;;;8.60;4.03;;;11.70;83.00;;;;;;5059634;28;20044;-79
2023/04/20 09:30:05;;;;;;;7.97;4.55;;;11.80;81.90;;;;;;5072062;28;20467;-79
2023/04/20 09:32:31;;;;;;;8.70;4.75;;;11.90;84.60;;;;;;5071435;28;20024;-80
2023/04/20 09:34:58;;;;;;;7.55;4.50;;;11.90;81.40;;;;;;5073055;28;20037;-80
2023/04/20 09:37:25;;;;;;;7.97;5.05;;;11.90;80.90;;;;;;5072854;28;20094;-79
2023/04/20 09:39:52;;;;;;;6.93;4.00;;;11.90;79.90;;;;;;5070594;28;20067;-79
2023/04/20 09:42:19;;;;;;;7.53;4.20;;;11.90;82.20;;;;;;5071031;28;20087;-80
2023/04/20 09:44:48;;;;;;;6.72;3.20;;;11.80;81.80;;;;;;5069678;28;20048;-79
2023/04/20 09:47:18;;;;;;;9.95;4.63;;;11.80;82.30;;;;;;5069246;28;20025;-78
2023/04/20 09:49:47;;;;;;;5.65;3.45;;;11.80;83.90;;;;;;5064159;28;20477;-79
2023/04/20 09:52:17;;;;;;;8.00;3.83;;;11.70;82.60;;;;;;5070456;28;20016;-79
2023/04/20 09:54:44;;;;;;;8.52;5.13;;;11.70;86.80;;;;;;5070033;28;20404;-80
2023/04/20 09:57:12;;;;;;;7.63;5.10;;;11.70;85.00;;;;;;5068141;28;20020;-78
2023/04/20 09:59:39;;;;;;;6.90;4.00;;;11.60;81.00;;;;;;5064427;28;20468;-79
2023/04/20 10:02:11;;;;;;;8.82;4.65;;;11.60;80.60;;;;;;5058739;28;20008;-79
2023/04/20 10:04:36;;;;;;;7.05;3.47;;;11.70;80.60;;;;;;5069963;28;20044;-81
2023/04/20 10:07:04;;;;;;;7.43;4.25;;;11.80;80.70;;;;;;5066560;28;20020;-78
2023/04/20 10:09:32;;;;;;;6.18;3.53;;;11.90;81.10;;;;;;5069141;28;20020;-79
2023/04/20 10:12:08;;;;;;;7.85;4.78;;;12.10;81.70;;;;;;5068630;28;20382;-78
2023/04/20 10:14:34;;;;;;;6.55;4.10;;;12.30;76.40;;;;;;5069046;28;20040;-79
2023/04/20 10:17:05;;;;;;;7.32;3.22;;;12.30;80.20;;;;;;5061974;28;20048;-78
2023/04/20 10:19:43;;;;;;;6.72;4.13;;;12.40;82.20;;;;;;5068633;28;20097;-80
2023/04/20 10:22:12;;;;;;;9.50;4.07;;;12.60;78.90;;;;;;5073960;28;20020;-77
2023/04/20 10:24:38;;;;;;;7.93;4.35;;;12.60;74.80;;;;;;5065651;28;20529;-78
2023/04/20 10:27:16;;;;;;;6.75;3.25;;;12.50;76.00;;;;;;5077312;28;20550;-79
2023/04/20 10:29:42;;;;;;;6.10;3.42;;;12.60;81.80;;;;;;5065378;28;20451;-78
2023/04/20 10:32:07;;;;;;;7.30;3.95;;;12.80;82.50;;;;;;5068351;28;20105;-79
2023/04/20 10:34:35;;;;;;;7.68;3.65;;;12.90;75.60;;;;;;5074059;28;20406;-79
2023/04/20 10:37:12;;;;;;;7.25;3.25;;;13.20;75.00;;;;;;5071629;28;20036;-78
2023/04/20 10:39:47;;;;;;;6.70;3.80;;;13.60;74.20;;;;;;5082073;28;20031;-77
2023/04/20 10:42:13;;;;;;;7.47;3.97;;;13.90;75.10;;;;;;5075629;28;20031;-79
2023/04/20 10:44:52;;;;;;;5.93;3.88;;;14.10;70.00;;;;;;5072796;28;20020;-79
2023/04/20 10:47:29;;;;;;;6.47;4.38;;;14.20;68.30;;;;;;5072087;28;20103;-80
2023/04/20 10:50:06;;;;;;;7.80;3.90;;;14.40;67.80;;;;;;5072465;28;20060;-78
2023/04/20 10:52:36;;;;;;;6.05;3.90;;;14.70;69.20;;;;;;5073469;28;20901;-79
2023/04/20 10:55:03;;;;;;;4.72;3.05;;;14.70;69.80;;;;;;5073664;28;20059;-79
2023/04/20 10:57:30;;;;;;;5.97;3.50;;;14.50;70.90;;;;;;5073918;28;20043;-79
2023/04/20 10:59:56;;;;;;;7.10;3.20;;;14.30;69.00;;;;;;5073639;28;20798;-78
2023/04/20 11:02:22;;;;;;;5.53;2.80;;;14.40;76.80;;;;;;5073484;28;20024;-77
2023/04/20 11:04:47;;;;;;;6.93;3.10;;;14.50;73.20;;;;;;5073208;28;20040;-78
2023/04/20 11:07:13;;;;;;;8.52;3.92;;;14.80;78.20;;;;;;5075236;28;20020;-79
2023/04/20 11:09:41;;;;;;;3.28;2.08;;;14.80;71.10;;;;;;5073347;28;20032;-78
2023/04/20 11:12:10;;;;;;;9.45;3.10;;;14.80;77.10;;;;;;5074074;28;20399;-78
2023/04/20 11:14:39;;;;;;;5.90;3.53;;;14.60;73.30;;;;;;5073567;28;20049;-78
2023/04/20 11:17:05;;;;;;;5.15;2.90;;;14.40;71.60;;;;;;5069849;28;20027;-79
2023/04/20 11:19:33;;;;;;;4.75;2.88;;;14.30;79.80;;;;;;5074289;28;20711;-79
2023/04/20 11:21:59;;;;;;;7.35;3.92;;;14.20;80.00;;;;;;5072973;28;20502;-80
2023/04/20 11:24:31;;;;;;;5.40;3.08;;;14.00;73.30;;;;;;5073007;28;20021;-77
2023/04/20 11:27:00;;;;;;;5.32;3.15;;;13.80;72.70;;;;;;5070829;28;20024;-77
2023/04/20 11:29:39;;;;;;;7.05;3.53;;;13.60;74.50;;;;;;5068177;28;20059;-78
2023/04/20 11:32:08;;;;;;;8.70;4.82;;;13.60;75.40;;;;;;5072047;28;20032;-78
2023/04/20 11:34:35;;;;;;;7.50;3.85;;;13.50;74.10;;;;;;5075920;28;20096;-80
2023/04/20 11:37:05;;;;;;;6.68;3.92;;;13.50;75.40;;;;;;5074733;28;20037;-78
2023/04/20 11:39:36;;;;;;;7.60;4.05;;;13.30;74.80;;;;;;5071066;28;20024;-79
2023/04/20 11:42:05;;;;;;;9.05;3.90;;;13.30;74.10;;;;;;5071707;28;20026;-78
2023/04/20 11:44:31;;;;;;;6.07;3.60;;;13.30;73.30;;;;;;5061867;28;20028;-78
2023/04/20 11:46:58;;;;;;;6.65;4.45;;;13.40;77.70;;;;;;5074108;28;20016;-80
2023/04/20 11:49:25;;;;;;;4.95;2.80;;;13.40;75.60;;;;;;5072042;28;20386;-79
2023/04/20 11:51:51;;;;;;;6.53;2.80;;;13.30;79.40;;;;;;5071487;28;20107;-78
2023/04/20 11:54:20;;;;;;;6.85;4.05;;;13.30;80.50;;;;;;5070867;28;20549;-77
2023/04/20 11:56:46;;;;;;;6.25;3.78;;;13.30;78.30;;;;;;5065842;28;20115;-79
2023/04/20 11:59:14;;;;;;;6.32;4.38;;;13.40;77.70;;;;;;5071024;28;20017;-79
2023/04/20 12:01:40;;;;;;;9.05;4.55;;;13.30;75.70;;;;;;5063038;28;20044;-79
2023/04/20 12:04:07;;;;;;;9.73;5.30;;;13.20;73.80;;;;;;5070961;28;20109;-76
2023/04/20 12:06:33;;;;;;;8.57;4.72;;;13.10;74.30;;;;;;5070596;28;20028;-81
2023/04/20 12:08:59;;;;;;;7.18;5.03;;;13.00;77.20;;;;;;5070112;28;20840;-77
2023/04/20 12:11:25;;;;;;;5.25;2.65;;;12.90;73.50;;;;;;5058802;28;20554;-78
2023/04/20 12:13:53;;;;;;;6.40;3.75;;;13.10;83.00;;;;;;5060001;28;20036;-78
2023/04/20 12:16:20;;;;;;;7.57;4.20;;;13.20;81.90;;;;;;5070986;28;20055;-78
2023/04/20 12:18:46;;;;;;;10.02;5.60;;;13.10;80.00;;;;;;5069925;28;20107;-77
2023/04/20 12:21:11;;;;;;;9.30;5.80;;;13.10;74.00;;;;;;5067951;28;20119;-77
2023/04/20 12:23:37;;;;;;;9.07;5.50;;;13.10;74.80;;;;;;5070514;28;20131;-78
2023/04/20 12:26:04;;;;;;;8.45;4.90;;;13.00;75.50;;;;;;5069455;28;20024;-78
2023/04/20 12:28:30;;;;;;;9.35;5.20;;;12.90;76.20;;;;;;5068067;28;20376;-79
2023/04/20 12:30:56;;;;;;;7.97;4.20;;;12.90;76.10;;;;;;5068963;28;20116;-79
2023/04/20 12:33:22;;;;;;;6.25;3.92;;;12.80;75.60;;;;;;5068867;28;20111;-77
2023/04/20 12:35:47;;;;;;;10.35;5.38;;;12.80;76.10;;;;;;5062372;28;20029;-78
2023/04/20 12:38:13;;;;;;;7.40;3.70;;;12.70;76.20;;;;;;5066437;28;20115;-79
2023/04/20 12:40:39;;;;;;;8.40;4.68;;;12.70;80.70;;;;;;5049167;28;20096;-77
2023/04/20 12:43:04;;;;;;;6.60;3.97;;;12.70;77.60;;;;;;5066742;28;20836;-78
2023/04/20 12:45:30;;;;;;;8.55;5.47;;;12.80;77.60;;;;;;5067544;28;20044;-78